Time;durP1;ratioP1;P1;durP2;ratioP2;P2;SDS_P1;SDS_P2;PMS_P1;PMS_P2;Temp;Humidity;BMP_temperature;BMP_pressure;BME280_temperature;BME280_humidity;BME280_pressure;Samples;Min_cycle;Max_cycle;Signal;HPM_P1;HPM_P2
2023/03/02 00:01:51;;;;;;;10.23;8.60;;;;;;;1.60;100.00;102870.25;4881651;29;20056;-77
2023/03/02 00:04:44;;;;;;;10.38;9.20;;;;;;;1.60;100.00;102868.56;4889322;29;20049;-76
2023/03/02 00:07:15;;;;;;;12.13;10.35;;;;;;;1.60;100.00;102873.75;4849900;29;20051;-77
2023/03/02 00:09:43;;;;;;;15.32;11.07;;;;;;;1.62;100.00;102868.69;4888517;29;20064;-77
2023/03/02 00:12:11;;;;;;;10.95;9.57;;;;;;;1.65;100.00;102876.72;4875905;29;20500;-77
2023/03/02 00:14:39;;;;;;;12.05;10.70;;;;;;;1.64;100.00;102861.88;4874722;29;20052;-77
2023/03/02 00:17:09;;;;;;;12.15;9.90;;;;;;;1.64;100.00;102874.88;4890012;29;20040;-77
2023/03/02 00:19:37;;;;;;;12.73;11.05;;;;;;;1.64;100.00;102867.09;4897348;29;20082;-77
2023/03/02 00:22:05;;;;;;;16.17;10.75;;;;;;;1.65;100.00;102855.91;4863231;29;20082;-78
2023/03/02 00:24:32;;;;;;;13.77;10.40;;;;;;;1.64;100.00;102859.28;4840282;29;20049;-78
2023/03/02 00:27:00;;;;;;;12.63;10.40;;;;;;;1.62;100.00;102851.38;4893685;29;20519;-78
2023/03/02 00:29:27;;;;;;;15.15;11.65;;;;;;;1.62;100.00;102845.28;4853303;29;20060;-78
2023/03/02 00:31:55;;;;;;;12.85;10.18;;;;;;;1.61;100.00;102838.28;4883233;29;20075;-78
2023/03/02 00:34:23;;;;;;;15.50;11.60;;;;;;;1.58;100.00;102838.06;4888792;29;20056;-78
2023/03/02 00:36:50;;;;;;;13.57;10.18;;;;;;;1.55;100.00;102831.88;4889648;29;20052;-78
2023/03/02 00:39:18;;;;;;;13.75;10.75;;;;;;;1.55;100.00;102828.34;4847736;29;20489;-76
2023/03/02 00:41:47;;;;;;;16.23;11.45;;;;;;;1.53;100.00;102835.13;4889864;29;20045;-77
2023/03/02 00:44:18;;;;;;;12.73;10.88;;;;;;;1.50;100.00;102834.91;4883893;29;20044;-77
2023/03/02 00:46:45;;;;;;;13.73;11.77;;;;;;;1.48;100.00;102832.22;4879891;29;20059;-76
2023/03/02 00:49:13;;;;;;;13.68;10.70;;;;;;;1.47;100.00;102834.69;4890646;29;20040;-76
2023/03/02 00:51:40;;;;;;;16.55;11.85;;;;;;;1.44;100.00;102831.88;4887434;29;20064;-76
2023/03/02 00:54:08;;;;;;;15.80;12.30;;;;;;;1.44;100.00;102840.56;4847603;29;20071;-78
2023/03/02 00:56:36;;;;;;;15.10;12.55;;;;;;;1.43;100.00;102838.75;4871732;29;20052;-76
2023/03/02 00:59:09;;;;;;;16.98;12.35;;;;;;;1.43;100.00;102832.66;4895597;29;20412;-78
2023/03/02 01:01:37;;;;;;;18.45;13.68;;;;;;;1.44;100.00;102829.28;4874774;29;20048;-78
2023/03/02 01:04:05;;;;;;;15.95;13.45;;;;;;;1.46;100.00;102822.50;4894022;29;20052;-78
2023/03/02 01:06:32;;;;;;;19.52;14.30;;;;;;;1.47;100.00;102822.59;4890772;29;20052;-78
2023/03/02 01:09:02;;;;;;;19.95;15.32;;;;;;;1.47;100.00;102824.28;4854110;29;20045;-76
2023/03/02 01:11:29;;;;;;;18.42;14.85;;;;;;;1.48;100.00;102819.22;4894977;29;20059;-78
2023/03/02 01:13:56;;;;;;;20.85;15.60;;;;;;;1.50;100.00;102812.44;4882074;29;20068;-78
2023/03/02 01:16:23;;;;;;;21.15;16.17;;;;;;;1.48;100.00;102810.53;4863365;29;20059;-78
2023/03/02 01:18:51;;;;;;;20.40;15.10;;;;;;;1.49;100.00;102812.31;4891527;29;20064;-77
2023/03/02 01:21:18;;;;;;;21.52;16.20;;;;;;;1.46;100.00;102801.72;4892302;29;20052;-77
2023/03/02 01:23:45;;;;;;;22.17;16.50;;;;;;;1.47;100.00;102804.41;4855381;29;21246;-76
2023/03/02 01:26:12;;;;;;;23.08;16.52;;;;;;;1.44;100.00;102801.59;4871109;29;20067;-77
2023/03/02 01:28:40;;;;;;;23.30;16.92;;;;;;;1.45;100.00;102798.19;4891025;29;20049;-77
2023/03/02 01:31:07;;;;;;;25.90;18.05;;;;;;;1.45;100.00;102803.41;4892773;29;20060;-77
2023/03/02 01:33:35;;;;;;;25.00;17.77;;;;;;;1.45;100.00;102798.19;4871937;29;20059;-77
2023/03/02 01:36:02;;;;;;;22.60;17.02;;;;;;;1.46;100.00;102791.34;4876855;29;20049;-77
2023/03/02 01:38:30;;;;;;;26.15;18.27;;;;;;;1.45;100.00;102795.59;4872979;29;20049;-77
2023/03/02 01:40:57;;;;;;;24.27;17.42;;;;;;;1.43;100.00;102786.81;4835017;29;20056;-77
2023/03/02 01:43:25;;;;;;;27.25;18.33;;;;;;;1.44;100.00;102793.81;4888628;29;20056;-77
2023/03/02 01:45:56;;;;;;;27.70;19.45;;;;;;;1.45;100.00;102786.91;4891573;29;20500;-76
2023/03/02 01:48:44;;;;;;;26.88;18.92;;;;;;;1.42;100.00;102784.09;4870931;29;20068;-77
2023/03/02 01:51:19;;;;;;;26.27;16.40;;;;;;;1.41;100.00;102778.00;4890291;29;20134;-77
2023/03/02 01:53:51;;;;;;;29.55;19.98;;;;;;;1.41;100.00;102778.00;4890619;29;20825;-77
2023/03/02 01:56:33;;;;;;;28.25;19.85;;;;;;;1.39;100.00;102784.78;4850163;29;20049;-77
2023/03/02 01:59:06;;;;;;;30.87;21.43;;;;;;;1.38;100.00;102776.88;4902116;29;20051;-77
2023/03/02 02:01:36;;;;;;;30.48;21.38;;;;;;;1.38;100.00;102782.06;4899203;29;20819;-77
2023/03/02 02:04:05;;;;;;;32.95;22.42;;;;;;;1.38;100.00;102775.19;4861043;29;20068;-77
2023/03/02 02:06:52;;;;;;;34.60;23.02;;;;;;;1.39;100.00;102774.38;4873030;29;20052;-77
2023/03/02 02:09:23;;;;;;;35.05;22.05;;;;;;;1.35;100.00;102772.38;4865259;29;20056;-77
2023/03/02 02:11:51;;;;;;;36.88;23.25;;;;;;;1.31;100.00;102775.53;4885129;29;20405;-77
2023/03/02 02:14:19;;;;;;;38.80;23.70;;;;;;;1.29;100.00;102766.75;4864970;29;20048;-77
2023/03/02 02:16:47;;;;;;;46.53;25.30;;;;;;;1.28;100.00;102773.59;4890627;29;20055;-76
2023/03/02 02:19:37;;;;;;;47.70;26.88;;;;;;;1.27;100.00;102766.63;4881342;29;20048;-76
2023/03/02 02:22:04;;;;;;;45.65;26.63;;;;;;;1.25;100.00;102767.28;4891261;29;20115;-77
2023/03/02 02:24:44;;;;;;;48.08;26.65;;;;;;;1.23;100.00;102766.28;4887728;29;20067;-77
2023/03/02 02:27:12;;;;;;;48.30;26.42;;;;;;;1.25;100.00;102764.69;4848705;29;20052;-77
2023/03/02 02:29:48;;;;;;;54.53;27.25;;;;;;;1.26;100.00;102761.31;4879990;29;20043;-77
2023/03/02 02:32:25;;;;;;;56.75;28.38;;;;;;;1.28;100.00;102759.72;4889455;29;20432;-77
2023/03/02 02:34:59;;;;;;;57.47;28.85;;;;;;;1.27;100.00;102771.81;4883456;29;20127;-77
2023/03/02 02:37:31;;;;;;;62.22;28.20;;;;;;;1.26;100.00;102776.91;4887880;29;20060;-77
2023/03/02 02:40:06;;;;;;;57.67;27.65;;;;;;;1.21;100.00;102776.59;4891195;29;20063;-77
2023/03/02 02:42:42;;;;;;;64.00;28.33;;;;;;;1.17;100.00;102766.75;4846527;29;20063;-77
2023/03/02 02:45:23;;;;;;;68.03;29.58;;;;;;;1.13;100.00;102770.81;4880621;29;20060;-77
2023/03/02 02:47:51;;;;;;;;;;;;;;;1.11;100.00;102782.78;4892452;29;20052;-77
2023/03/02 02:50:29;;;;;;;59.40;28.25;;;;;;;1.08;100.00;102786.88;4880720;29;19927;-77
2023/03/02 02:53:05;;;;;;;76.60;30.85;;;;;;;1.06;100.00;102778.97;4891114;29;20068;-79
2023/03/02 02:55:34;;;;;;;68.78;29.15;;;;;;;1.06;100.00;102784.16;4887404;29;20084;-76
2023/03/02 02:58:08;;;;;;;72.80;30.92;;;;;;;1.03;100.00;102773.53;4848288;29;20056;-78
2023/03/02 03:00:36;;;;;;;76.60;30.48;;;;;;;1.02;100.00;102770.81;4878078;29;20064;-77
2023/03/02 03:03:28;;;;;;;98.70;31.85;;;;;;;0.96;100.00;102777.41;4895543;29;20059;-77
2023/03/02 03:06:00;;;;;;;83.72;31.92;;;;;;;0.90;100.00;102765.66;4877983;29;20051;-77
2023/03/02 03:08:59;;;;;;;94.60;31.85;;;;;;;0.85;100.00;102772.19;4887470;29;20049;-78
2023/03/02 03:11:47;;;;;;;86.07;31.15;;;;;;;0.81;100.00;102773.66;4883544;29;20096;-78
2023/03/02 03:14:18;;;;;;;84.75;33.10;;;;;;;0.84;100.00;102775.59;4857368;29;20048;-78
2023/03/02 03:16:49;;;;;;;77.55;28.48;;;;;;;0.83;100.00;102778.97;4879147;29;20051;-77
2023/03/02 03:19:17;;;;;;;75.35;30.80;;;;;;;0.81;100.00;102780.53;4890639;29;20044;-78
2023/03/02 03:21:47;;;;;;;84.90;30.35;;;;;;;0.83;100.00;102776.38;4880503;29;20079;-78
2023/03/02 03:24:15;;;;;;;79.57;30.38;;;;;;;0.85;100.00;102779.97;4889568;29;20052;-78
2023/03/02 03:26:43;;;;;;;66.88;27.17;;;;;;;0.83;100.00;102773.78;4859257;29;20056;-77
2023/03/02 03:29:13;;;;;;;116.93;32.05;;;;;;;0.86;100.00;102779.19;4851891;29;20048;-78
2023/03/02 03:31:40;;;;;;;82.90;30.52;;;;;;;0.80;100.00;102771.88;4880779;29;20051;-77
2023/03/02 03:34:09;;;;;;;74.70;29.23;;;;;;;0.79;100.00;102772.63;4888210;29;20052;-77
2023/03/02 03:36:37;;;;;;;75.50;28.30;;;;;;;0.77;100.00;102769.03;4882417;29;20056;-77
2023/03/02 03:39:05;;;;;;;76.65;28.08;;;;;;;0.76;100.00;102770.72;4872584;29;20057;-77
2023/03/02 03:41:33;;;;;;;78.97;29.05;;;;;;;0.77;100.00;102775.13;4883082;29;20056;-77
2023/03/02 03:44:02;;;;;;;66.93;27.52;;;;;;;0.73;100.00;102765.31;4843802;29;20083;-77
2023/03/02 03:46:32;;;;;;;72.28;27.50;;;;;;;0.72;100.00;102760.91;4879553;29;20432;-77
2023/03/02 03:49:01;;;;;;;91.60;26.90;;;;;;;0.72;100.00;102768.72;4872209;29;20058;-77
2023/03/02 03:51:33;;;;;;;81.22;27.88;;;;;;;0.72;100.00;102763.53;4882101;29;20060;-77
2023/03/02 03:54:04;;;;;;;62.38;26.65;;;;;;;0.74;100.00;102756.75;4887647;29;20282;-77
2023/03/02 03:56:43;;;;;;;85.00;28.38;;;;;;;0.78;100.00;102761.38;4892329;29;20056;-77
2023/03/02 03:59:21;;;;;;;162.45;33.15;;;;;;;0.78;100.00;102761.38;4843586;29;20087;-77
2023/03/02 04:01:57;;;;;;;137.32;29.10;;;;;;;0.80;100.00;102758.88;4876691;29;20941;-79
2023/03/02 04:04:32;;;;;;;120.32;30.00;;;;;;;0.81;100.00;102765.88;4889598;29;20057;-77
2023/03/02 04:07:02;;;;;;;75.97;26.30;;;;;;;0.82;100.00;102767.69;4880598;29;20071;-77
2023/03/02 04:09:31;;;;;;;59.03;25.45;;;;;;;0.80;100.00;102758.00;4874531;29;20055;-77
2023/03/02 04:11:58;;;;;;;62.78;25.15;;;;;;;0.81;100.00;102768.47;4887270;29;20057;-77
2023/03/02 04:14:26;;;;;;;78.60;24.65;;;;;;;0.80;100.00;102771.88;4874792;29;20052;-78
2023/03/02 04:16:55;;;;;;;60.15;24.05;;;;;;;0.78;100.00;102763.97;4834375;29;20061;-77
2023/03/02 04:19:24;;;;;;;73.20;25.15;;;;;;;0.78;100.00;102768.25;4889603;29;20056;-77
2023/03/02 04:21:57;;;;;;;96.13;23.33;;;;;;;0.75;100.00;102773.22;4887142;29;20060;-77
2023/03/02 04:24:26;;;;;;;88.07;23.70;;;;;;;0.71;100.00;102769.47;4881699;29;20048;-78
2023/03/02 04:26:58;;;;;;;56.38;23.08;;;;;;;0.73;100.00;102772.19;4870571;29;20535;-77
2023/03/02 04:29:26;;;;;;;52.00;22.38;;;;;;;0.74;100.00;102771.44;4890087;29;20051;-77
2023/03/02 04:31:53;;;;;;;45.50;20.77;;;;;;;0.75;100.00;102774.09;4840373;29;20087;-77
2023/03/02 04:34:24;;;;;;;84.10;26.92;;;;;;;0.73;100.00;102775.69;4860111;29;20061;-77
2023/03/02 04:36:53;;;;;;;70.15;22.95;;;;;;;0.71;100.00;102766.88;4898920;29;20047;-78
2023/03/02 04:39:21;;;;;;;118.13;24.88;;;;;;;0.71;100.00;102773.78;4882364;29;20048;-78
2023/03/02 04:41:51;;;;;;;126.35;23.73;;;;;;;0.70;100.00;102775.47;4900794;29;20416;-78
2023/03/02 04:44:19;;;;;;;157.73;26.63;;;;;;;0.72;100.00;102770.41;4899048;29;20586;-78
2023/03/02 04:46:48;;;;;;;70.85;22.83;;;;;;;0.69;100.00;102773.66;4868003;29;20060;-78
2023/03/02 04:49:17;;;;;;;91.28;25.13;;;;;;;0.70;100.00;102767.69;4875940;29;20083;-78
2023/03/02 04:51:47;;;;;;;107.47;24.00;;;;;;;0.69;100.00;102768.47;4877920;29;20420;-78
2023/03/02 04:54:21;;;;;;;65.22;24.10;;;;;;;0.69;100.00;102780.53;4888734;29;20048;-76
2023/03/02 04:56:50;;;;;;;212.73;28.85;;;;;;;0.66;100.00;102781.25;4891799;29;20045;-76
2023/03/02 04:59:19;;;;;;;120.68;25.10;;;;;;;0.62;100.00;102771.38;4895809;29;20079;-78
2023/03/02 05:01:48;;;;;;;51.25;21.50;;;;;;;0.63;100.00;102772.31;4866930;29;20516;-78
2023/03/02 05:04:15;;;;;;;86.45;22.70;;;;;;;0.66;100.00;102776.03;4835599;29;20056;-77
2023/03/02 05:06:43;;;;;;;80.38;24.05;;;;;;;0.67;100.00;102777.84;4878786;29;20040;-76
2023/03/02 05:09:11;;;;;;;177.65;26.98;;;;;;;0.67;100.00;102777.84;4877536;29;20056;-77
2023/03/02 05:11:39;;;;;;;103.03;22.73;;;;;;;0.65;100.00;102781.13;4874101;29;20049;-77
2023/03/02 05:14:10;;;;;;;141.77;26.63;;;;;;;0.62;100.00;102778.28;4881483;29;20055;-78
2023/03/02 05:16:40;;;;;;;156.10;25.63;;;;;;;0.56;100.00;102781.31;4889841;29;20057;-78
2023/03/02 05:19:10;;;;;;;223.20;29.10;;;;;;;0.53;100.00;102784.59;4840047;29;20512;-78
2023/03/02 05:21:38;;;;;;;95.90;26.08;;;;;;;0.49;100.00;102777.38;4897764;29;20052;-78
2023/03/02 05:24:05;;;;;;;111.10;24.90;;;;;;;0.51;100.00;102780.06;4866996;29;20381;-78
2023/03/02 05:26:33;;;;;;;132.40;28.77;;;;;;;0.48;100.00;102785.94;4896790;29;20055;-78
2023/03/02 05:29:00;;;;;;;225.18;33.05;;;;;;;0.47;100.00;102780.63;4890629;29;20450;-76
2023/03/02 05:31:54;;;;;;;214.93;36.10;;;;;;;0.45;100.00;102771.81;4888795;29;20052;-76
2023/03/02 05:34:22;;;;;;;132.15;28.13;;;;;;;0.43;100.00;102782.09;4836482;29;20056;-77
2023/03/02 05:36:50;;;;;;;309.40;41.45;;;;;;;0.43;100.00;102789.88;4875748;29;20049;-76
2023/03/02 05:39:17;;;;;;;172.95;32.05;;;;;;;0.41;100.00;102778.47;4869224;29;20041;-76
2023/03/02 05:41:45;;;;;;;169.07;32.15;;;;;;;0.35;100.00;102771.13;4891026;29;20052;-78
2023/03/02 05:44:12;;;;;;;274.10;37.75;;;;;;;0.32;100.00;102772.59;4885989;29;20056;-77
2023/03/02 05:46:40;;;;;;;228.00;35.47;;;;;;;0.31;100.00;102783.78;4890739;29;20088;-78
2023/03/02 05:49:07;;;;;;;130.13;32.65;;;;;;;0.30;100.00;102792.31;4832367;29;20044;-78
2023/03/02 05:51:35;;;;;;;137.02;31.10;;;;;;;0.31;100.00;102778.56;4879125;29;20052;-78
2023/03/02 05:54:02;;;;;;;302.15;36.63;;;;;;;0.32;100.00;102780.38;4877236;29;20609;-78
2023/03/02 05:56:29;;;;;;;226.35;33.10;;;;;;;0.33;100.00;102774.41;4879950;29;20052;-77
2023/03/02 05:58:57;;;;;;;157.20;33.58;;;;;;;0.35;100.00;102778.91;4893394;29;20056;-78
2023/03/02 06:01:25;;;;;;;207.52;35.58;;;;;;;0.38;100.00;102778.25;4881089;29;20053;-78
2023/03/02 06:03:52;;;;;;;163.18;32.10;;;;;;;0.37;100.00;102777.34;4890096;29;20056;-76
2023/03/02 06:06:19;;;;;;;191.23;32.92;;;;;;;0.30;100.00;102785.47;4806064;29;20550;-77
2023/03/02 06:08:46;;;;;;;188.88;31.50;;;;;;;0.25;100.00;102775.53;4892781;29;20048;-77
2023/03/02 06:11:14;;;;;;;194.02;33.63;;;;;;;0.24;100.00;102774.59;4835478;29;20053;-77
2023/03/02 06:13:41;;;;;;;169.15;33.95;;;;;;;0.27;100.00;102777.44;4886798;29;20055;-77
2023/03/02 06:16:08;;;;;;;171.48;33.90;;;;;;;0.27;100.00;102780.03;4886157;29;20071;-77
2023/03/02 06:18:37;;;;;;;128.98;32.30;;;;;;;0.26;100.00;102779.91;4888461;29;20056;-77
2023/03/02 06:21:07;;;;;;;83.65;29.83;;;;;;;0.27;100.00;102777.44;4841136;29;20059;-77
2023/03/02 06:23:35;;;;;;;148.27;34.95;;;;;;;0.30;100.00;102769.91;4871452;29;20052;-77
2023/03/02 06:26:10;;;;;;;101.38;30.55;;;;;;;0.36;100.00;102772.97;4869945;29;20048;-77
2023/03/02 06:28:38;;;;;;;220.65;36.35;;;;;;;0.42;100.00;102769.00;4869359;29;20063;-77
2023/03/02 06:31:18;;;;;;;145.35;34.17;;;;;;;0.44;100.00;102768.34;4864504;29;20439;-77
2023/03/02 06:33:46;;;;;;;78.68;30.38;;;;;;;0.47;100.00;102767.66;4873763;29;20052;-77
2023/03/02 06:36:15;;;;;;;196.73;32.90;;;;;;;0.46;100.00;102771.06;4818497;29;20049;-77
2023/03/02 06:38:43;;;;;;;246.27;35.97;;;;;;;0.41;100.00;102762.91;4865273;29;20045;-77
2023/03/02 06:41:10;;;;;;;301.50;38.55;;;;;;;0.39;100.00;102759.31;4858098;29;20097;-78
2023/03/02 06:43:38;;;;;;;263.42;33.45;;;;;;;0.33;100.00;102759.75;4871516;29;20071;-77
2023/03/02 06:46:06;;;;;;;161.95;26.58;;;;;;;0.31;100.00;102770.81;4881467;29;20060;-78
2023/03/02 06:48:33;;;;;;;235.70;30.95;;;;;;;0.24;100.00;102773.72;4902087;29;20056;-78
2023/03/02 06:51:00;;;;;;;181.40;28.23;;;;;;;0.20;100.00;102762.19;4875622;29;20064;-77
2023/03/02 06:53:28;;;;;;;245.50;28.73;;;;;;;0.15;100.00;102766.13;4850764;29;20057;-78
2023/03/02 06:55:55;;;;;;;216.05;29.65;;;;;;;0.08;100.00;102761.28;4866753;29;20077;-78
2023/03/02 06:58:23;;;;;;;149.00;26.58;;;;;;;0.03;100.00;102768.69;4884268;29;20048;-80
2023/03/02 07:00:50;;;;;;;97.90;22.05;;;;;;;0.03;100.00;102765.19;4889699;29;20037;-78
2023/03/02 07:03:18;;;;;;;154.27;28.20;;;;;;;0.05;100.00;102768.81;4890371;29;20052;-78
2023/03/02 07:05:47;;;;;;;243.18;28.48;;;;;;;0.07;100.00;102770.72;4857039;29;20060;-77
2023/03/02 07:08:15;;;;;;;134.60;26.88;;;;;;;0.09;100.00;102774.34;4850823;29;20052;-78
2023/03/02 07:10:42;;;;;;;146.05;24.65;;;;;;;0.11;100.00;102772.75;4854371;29;20048;-78
2023/03/02 07:13:10;;;;;;;151.15;23.90;;;;;;;0.09;100.00;102781.22;4841542;29;20045;-78
2023/03/02 07:15:40;;;;;;;68.38;21.10;;;;;;;0.07;100.00;102775.91;4895416;29;20052;-78
2023/03/02 07:18:07;;;;;;;65.60;20.25;;;;;;;0.01;100.00;102779.75;4889663;29;20072;-78
2023/03/02 07:20:35;;;;;;;104.78;21.00;;;;;;;-0.03;100.00;102773.41;4889253;29;20049;-78
2023/03/02 07:23:04;;;;;;;128.15;21.98;;;;;;;-0.05;100.00;102788.84;4855337;29;20044;-78
2023/03/02 07:25:31;;;;;;;81.32;19.70;;;;;;;-0.12;100.00;102777.88;4879980;29;20041;-78
2023/03/02 07:27:59;;;;;;;76.78;19.30;;;;;;;-0.14;100.00;102777.75;4858440;29;20468;-78
2023/03/02 07:30:26;;;;;;;68.05;21.27;;;;;;;-0.12;100.00;102778.78;4848694;29;20071;-77
2023/03/02 07:32:54;;;;;;;76.15;19.67;;;;;;;-0.11;100.00;102779.69;4883491;29;20056;-78
2023/03/02 07:35:21;;;;;;;83.32;23.00;;;;;;;-0.08;100.00;102772.13;4847445;29;20506;-77
2023/03/02 07:37:51;;;;;;;120.50;25.45;;;;;;;-0.06;100.00;102775.75;4892635;29;20072;-78
2023/03/02 07:40:18;;;;;;;62.20;21.15;;;;;;;-0.01;100.00;102772.72;4809301;29;20052;-77
2023/03/02 07:42:46;;;;;;;69.15;23.42;;;;;;;0.01;100.00;102769.38;4876275;29;20053;-78
2023/03/02 07:45:15;;;;;;;112.13;25.02;;;;;;;0.04;100.00;102769.59;4856399;29;20059;-78
2023/03/02 07:47:43;;;;;;;119.93;24.38;;;;;;;0.09;100.00;102770.84;4877897;29;20068;-79
2023/03/02 07:50:11;;;;;;;69.82;21.88;;;;;;;0.11;100.00;102767.56;4881199;29;20063;-78
2023/03/02 07:52:38;;;;;;;61.60;21.45;;;;;;;0.14;100.00;102762.63;4889939;29;20048;-78
2023/03/02 07:55:06;;;;;;;63.13;21.83;;;;;;;0.21;100.00;102756.25;4847958;29;20068;-78
2023/03/02 07:57:34;;;;;;;73.97;22.52;;;;;;;0.27;100.00;102763.59;4872385;29;20056;-77
2023/03/02 08:00:02;;;;;;;81.15;23.27;;;;;;;0.25;100.00;102768.66;4876572;29;20063;-78
2023/03/02 08:02:39;;;;;;;60.60;22.88;;;;;;;0.25;100.00;102771.25;4885666;29;20064;-77
2023/03/02 08:05:08;;;;;;;75.55;20.45;;;;;;;0.29;100.00;102767.19;4870598;29;20061;-78
2023/03/02 08:07:36;;;;;;;106.55;23.20;;;;;;;0.28;100.00;102778.34;4883290;29;20406;-78
2023/03/02 08:10:04;;;;;;;201.07;27.55;;;;;;;0.28;100.00;102779.22;4847214;29;20075;-78
2023/03/02 08:12:31;;;;;;;121.88;24.60;;;;;;;0.31;100.00;102782.06;4873437;29;20777;-79
2023/03/02 08:15:02;;;;;;;103.40;24.30;;;;;;;0.38;100.00;102771.38;4860708;29;20064;-79
2023/03/02 08:17:31;;;;;;;110.43;26.80;;;;;;;0.48;100.00;102765.19;4890951;29;20043;-79
2023/03/02 08:19:58;;;;;;;46.58;19.90;;;;;;;0.57;100.00;102757.19;4868348;29;20427;-79
2023/03/02 08:22:26;;;;;;;131.38;22.02;;;;;;;0.58;100.00;102765.06;4829059;29;20052;-77
2023/03/02 08:24:53;;;;;;;135.43;19.83;;;;;;;0.56;100.00;102757.97;4885975;29;20052;-78
2023/03/02 08:27:22;;;;;;;66.18;19.50;;;;;;;0.60;100.00;102766.88;4840923;29;20053;-78
2023/03/02 08:29:49;;;;;;;39.75;16.08;;;;;;;0.65;100.00;102760.34;4860308;29;20060;-77
2023/03/02 08:32:17;;;;;;;74.30;18.17;;;;;;;0.63;100.00;102762.84;4879560;29;20043;-78
2023/03/02 08:34:44;;;;;;;75.10;20.35;;;;;;;0.60;100.00;102760.00;4874464;29;20159;-78
2023/03/02 08:37:11;;;;;;;72.78;17.25;;;;;;;0.62;100.00;102753.22;4879160;29;20069;-78
2023/03/02 08:39:39;;;;;;;45.88;16.42;;;;;;;0.57;100.00;102754.59;4885571;29;20044;-78
2023/03/02 08:42:07;;;;;;;62.65;15.13;;;;;;;0.57;100.00;102762.38;4824521;29;20052;-78
2023/03/02 08:44:34;;;;;;;45.05;16.08;;;;;;;0.60;100.00;102759.09;4881447;29;20059;-78
2023/03/02 08:47:01;;;;;;;62.85;18.23;;;;;;;0.63;100.00;102755.03;4885392;29;20815;-78
2023/03/02 08:49:29;;;;;;;35.92;15.65;;;;;;;0.71;100.00;102753.91;4878148;29;20051;-77
2023/03/02 08:51:58;;;;;;;32.80;15.32;;;;;;;0.75;100.00;102763.72;4843518;29;20053;-76
2023/03/02 08:54:26;;;;;;;80.13;17.48;;;;;;;0.70;100.00;102762.50;4891501;29;20060;-78
2023/03/02 08:56:55;;;;;;;38.97;14.07;;;;;;;0.66;100.00;102752.69;4835778;29;20048;-78
2023/03/02 08:59:22;;;;;;;83.72;16.05;;;;;;;0.66;100.00;102762.16;4877374;29;20610;-78
2023/03/02 09:01:51;;;;;;;67.80;15.95;;;;;;;0.66;100.00;102754.34;4873123;29;20519;-78
2023/03/02 09:04:19;;;;;;;43.80;15.85;;;;;;;0.69;100.00;102750.31;4886245;29;20059;-78
2023/03/02 09:06:47;;;;;;;44.05;15.00;;;;;;;0.76;100.00;102757.75;4875282;29;20421;-79
2023/03/02 09:09:14;;;;;;;25.52;14.10;;;;;;;0.83;100.00;102746.13;4882922;29;20067;-79
2023/03/02 09:11:43;;;;;;;28.63;14.57;;;;;;;0.95;100.00;102749.63;4847124;29;20057;-79
2023/03/02 09:14:11;;;;;;;24.50;14.27;;;;;;;1.05;100.00;102751.19;4875885;29;20061;-77
2023/03/02 09:16:39;;;;;;;37.15;16.20;;;;;;;1.16;100.00;102744.19;4888553;29;20044;-78
2023/03/02 09:19:06;;;;;;;30.30;15.75;;;;;;;1.26;100.00;102743.13;4862683;29;20056;-77
2023/03/02 09:21:33;;;;;;;25.88;14.40;;;;;;;1.29;100.00;102740.78;4881508;29;20049;-77
2023/03/02 09:24:01;;;;;;;27.48;14.65;;;;;;;1.40;100.00;102751.91;4864121;29;20428;-79
2023/03/02 09:26:29;;;;;;;30.67;14.98;;;;;;;1.44;100.00;102747.06;4825968;29;20087;-79
2023/03/02 09:28:56;;;;;;;29.20;14.20;;;;;;;1.53;100.00;102742.50;4865005;29;20071;-78
2023/03/02 09:31:24;;;;;;;28.52;14.60;;;;;;;1.63;100.00;102743.16;4871720;29;20059;-78
2023/03/02 09:33:51;;;;;;;27.83;15.63;;;;;;;1.71;100.00;102749.78;4872614;29;20056;-76
2023/03/02 09:36:22;;;;;;;22.67;14.23;;;;;;;1.74;100.00;102743.09;4884424;29;20045;-79
2023/03/02 09:38:50;;;;;;;30.17;15.27;;;;;;;1.77;100.00;102746.69;4865715;29;20048;-79
2023/03/02 09:41:20;;;;;;;26.13;13.73;;;;;;;1.77;100.00;102752.78;4886262;29;20052;-76
2023/03/02 09:44:30;;;;;;;41.58;15.15;;;;;;;1.72;100.00;102749.88;4849553;29;20057;-79
2023/03/02 09:47:22;;;;;;;27.40;13.63;;;;;;;1.73;100.00;102753.38;4862950;29;20056;-78
2023/03/02 09:50:10;;;;;;;24.67;13.90;;;;;;;1.72;100.00;102754.16;4876083;29;20516;-79
2023/03/02 09:52:47;;;;;;;22.63;13.23;;;;;;;1.75;100.00;102746.59;4883182;29;20052;-78
2023/03/02 09:55:23;;;;;;;22.50;13.60;;;;;;;1.81;100.00;102748.72;4889605;29;20060;-78
2023/03/02 09:57:53;;;;;;;24.00;14.15;;;;;;;1.90;100.00;102750.25;4870526;29;20065;-78
2023/03/02 10:00:27;;;;;;;23.83;14.93;;;;;;;1.97;100.00;102748.97;4847353;29;20136;-78
2023/03/02 10:03:02;;;;;;;21.10;12.85;;;;;;;2.03;100.00;102745.91;4885764;29;20044;-78
2023/03/02 10:05:49;;;;;;;22.10;13.52;;;;;;;2.10;100.00;102737.72;4877721;29;20056;-78
2023/03/02 10:08:45;;;;;;;23.45;13.45;;;;;;;2.11;100.00;102742.13;4880888;29;20049;-78
2023/03/02 10:11:38;;;;;;;24.30;14.02;;;;;;;2.12;100.00;102751.72;4869132;29;20060;-77
2023/03/02 10:14:22;;;;;;;18.48;12.70;;;;;;;2.14;100.00;102755.34;4865837;29;20056;-78
2023/03/02 10:17:26;;;;;;;20.10;12.05;;;;;;;2.20;100.00;102740.13;4876146;29;20052;-78
2023/03/02 10:20:13;;;;;;;19.25;11.82;;;;;;;2.26;100.00;102740.53;4877760;29;20576;-78
2023/03/02 10:22:49;;;;;;;17.73;11.50;;;;;;;2.28;100.00;102745.84;4887624;29;20534;-79
2023/03/02 10:25:42;;;;;;;15.93;10.85;;;;;;;2.34;100.00;102746.25;4877488;29;20633;-78
2023/03/02 10:28:18;;;;;;;18.33;11.52;;;;;;;2.46;100.00;102748.81;4889934;29;20064;-77
2023/03/02 10:30:59;;;;;;;16.00;10.55;;;;;;;2.55;100.00;102752.00;4846679;29;20056;-78
2023/03/02 10:33:28;;;;;;;14.43;10.02;;;;;;;2.57;100.00;102758.22;4860885;29;20063;-78
2023/03/02 10:35:55;;;;;;;13.75;9.93;;;;;;;2.61;100.00;102756.69;4862594;29;20044;-79
2023/03/02 10:38:24;;;;;;;16.13;11.15;;;;;;;2.61;100.00;102756.69;4872790;29;20075;-79
2023/03/02 10:40:58;;;;;;;13.65;9.77;;;;;;;2.66;100.00;102763.13;4865320;29;20057;-78
2023/03/02 10:43:31;;;;;;;19.17;9.88;;;;;;;2.56;100.00;102761.63;4885686;29;20040;-77
2023/03/02 10:46:03;;;;;;;16.63;10.82;;;;;;;2.51;100.00;102761.31;4844811;29;20069;-78
2023/03/02 10:48:31;;;;;;;16.48;10.80;;;;;;;2.52;100.00;102763.09;4879801;29;20060;-78
2023/03/02 10:50:59;;;;;;;14.27;9.85;;;;;;;2.51;100.00;102765.59;4863644;29;23602;-78
2023/03/02 10:53:27;;;;;;;15.45;10.48;;;;;;;2.53;100.00;102764.00;4872637;29;20056;-77
2023/03/02 10:55:55;;;;;;;16.08;10.70;;;;;;;2.54;100.00;102760.63;4873542;29;20049;-78
2023/03/02 10:58:31;;;;;;;18.88;12.00;;;;;;;2.55;100.00;102759.78;4881514;29;20048;-77
2023/03/02 11:01:13;;;;;;;15.05;10.40;;;;;;;2.57;100.00;102750.41;4842688;29;20416;-77
2023/03/02 11:03:41;;;;;;;15.82;11.30;;;;;;;2.68;100.00;102749.41;4882753;29;20830;-77
2023/03/02 11:06:28;;;;;;;16.58;10.57;;;;;;;2.82;100.00;102739.91;4873847;29;20154;-77
2023/03/02 11:08:58;;;;;;;17.13;11.00;;;;;;;2.93;100.00;102751.03;4877070;29;20052;-77
2023/03/02 11:11:26;;;;;;;15.95;11.90;;;;;;;2.95;100.00;102762.44;4879311;29;20074;-77
2023/03/02 11:13:55;;;;;;;17.00;11.82;;;;;;;3.03;100.00;102757.72;4860939;29;20044;-77
2023/03/02 11:16:31;;;;;;;33.35;17.20;;;;;;;3.10;100.00;102758.22;4878880;29;20052;-77
2023/03/02 11:19:30;;;;;;;16.58;11.07;;;;;;;3.18;100.00;102743.06;4840417;29;20075;-77
2023/03/02 11:22:36;;;;;;;19.00;10.98;;;;;;;3.26;100.00;102738.34;4849249;29;20580;-77
2023/03/02 11:25:11;;;;;;;15.68;10.90;;;;;;;3.22;100.00;102736.34;4884143;29;20060;-77